createdAt,value
2018-06-22T00:01:50.245Z,86.69
2018-06-22T00:02:50.241Z,86.21
2018-06-22T00:04:43.143Z,85.93
2018-06-22T00:05:43.204Z,85.93
2018-06-22T00:07:36.093Z,85.49
2018-06-22T00:08:36.089Z,85.68
2018-06-22T00:10:28.991Z,85.68
2018-06-22T00:11:29.008Z,85.01
2018-06-22T00:13:21.936Z,85.30
2018-06-22T00:14:21.938Z,85.30
2018-06-22T00:16:14.839Z,85.25
2018-06-22T00:17:14.855Z,85.35
2018-06-22T00:19:07.778Z,85.35
2018-06-22T00:20:07.778Z,85.54
2018-06-22T00:22:00.703Z,85.45
2018-06-22T00:23:00.703Z,86.02
2018-06-22T00:24:53.609Z,85.16
2018-06-22T00:25:53.625Z,85.25
2018-06-22T00:27:46.549Z,85.64
2018-06-22T00:28:46.546Z,85.06
2018-06-22T00:30:39.452Z,85.45
2018-06-22T00:31:39.472Z,85.45
2018-06-22T00:33:32.395Z,85.06
2018-06-22T00:34:32.397Z,84.88
2018-06-22T00:36:25.302Z,84.78
2018-06-22T00:37:25.320Z,84.20
2018-06-22T00:39:18.243Z,84.69
2018-06-22T00:40:18.242Z,85.06
2018-06-22T00:42:11.182Z,84.59
2018-06-22T00:43:11.168Z,84.88
2018-06-22T00:45:05.064Z,84.59
2018-06-22T00:46:05.081Z,85.06
2018-06-22T00:47:58.005Z,84.88
2018-06-22T00:48:58.003Z,85.06
2018-06-22T00:50:50.907Z,84.40
2018-06-22T00:51:50.926Z,84.49
2018-06-22T00:53:43.861Z,85.06
2018-06-22T00:54:43.850Z,84.88
2018-06-22T00:56:36.756Z,84.59
2018-06-22T00:57:36.773Z,84.78
2018-06-22T00:59:29.698Z,84.30
2018-06-22T01:00:29.695Z,84.40
2018-06-22T01:02:22.671Z,83.73
2018-06-22T01:03:22.620Z,84.30
2018-06-22T01:05:15.530Z,84.11
2018-06-22T01:06:15.550Z,84.11
2018-06-22T01:08:08.477Z,84.01
2018-06-22T01:09:08.472Z,84.55
2018-06-22T01:11:01.378Z,84.97
2018-06-22T01:12:01.397Z,84.49
2018-06-22T01:13:54.327Z,84.59
2018-06-22T01:14:54.322Z,84.69
2018-06-22T01:16:47.225Z,84.59
2018-06-22T01:17:47.242Z,84.49
2018-06-22T01:19:40.167Z,84.74
2018-06-22T01:20:40.165Z,84.69
2018-06-22T01:22:33.092Z,84.97
2018-06-22T01:23:33.092Z,85.06
2018-06-22T01:25:25.992Z,84.49
2018-06-22T01:26:26.012Z,84.88
2018-06-22T01:28:18.935Z,84.69
2018-06-22T01:29:18.931Z,84.97
2018-06-22T01:31:11.833Z,84.59
2018-06-22T01:32:11.853Z,85.35
2018-06-22T01:34:04.776Z,85.16
2018-06-22T01:35:04.773Z,85.45
2018-06-22T01:36:57.674Z,85.25
2018-06-22T01:37:57.692Z,85.35
2018-06-22T01:39:50.618Z,85.35
2018-06-22T01:40:50.613Z,84.59
2018-06-22T01:42:43.514Z,84.78
2018-06-22T01:43:43.534Z,85.16
2018-06-22T01:45:36.456Z,84.78
2018-06-22T01:46:36.455Z,84.40
2018-06-22T01:48:29.378Z,84.01
2018-06-22T01:49:29.377Z,83.58
2018-06-22T01:51:22.288Z,83.73
2018-06-22T01:52:22.300Z,83.92
2018-06-22T01:54:15.225Z,83.54
2018-06-22T01:55:15.223Z,83.64
2018-06-22T01:57:08.128Z,83.11
2018-06-22T01:58:08.147Z,82.91
2018-06-22T02:00:01.078Z,83.11
2018-06-22T02:01:01.072Z,83.48
2018-06-22T02:02:53.975Z,82.63
2018-06-22T02:03:53.994Z,82.53
2018-06-22T02:05:46.941Z,82.24
2018-06-22T02:06:46.917Z,81.67
2018-06-22T02:08:39.847Z,81.86
2018-06-22T02:09:39.844Z,81.10
2018-06-22T02:11:32.745Z,80.91
2018-06-22T02:12:32.765Z,81.20
2018-06-22T02:14:25.689Z,81.38
2018-06-22T02:15:25.687Z,81.10
2018-06-22T02:17:18.592Z,80.81
2018-06-22T02:18:18.611Z,80.72
2018-06-22T02:20:11.535Z,80.53
2018-06-22T02:21:11.536Z,80.81
2018-06-22T02:23:04.444Z,80.81
2018-06-22T02:24:04.459Z,80.43
2018-06-22T02:25:57.384Z,80.62
2018-06-22T02:26:57.382Z,81.10
2018-06-22T02:28:50.312Z,81.10
2018-06-22T02:29:50.310Z,80.53
2018-06-22T02:31:43.216Z,80.62
2018-06-22T02:32:43.233Z,80.81
2018-06-22T02:34:36.158Z,80.72
2018-06-22T02:35:36.157Z,80.72
2018-06-22T02:37:29.062Z,80.53
2018-06-22T02:38:29.080Z,80.81
2018-06-22T02:40:22.006Z,80.38
2018-06-22T02:41:22.009Z,80.62
2018-06-22T02:43:14.907Z,80.72
2018-06-22T02:44:14.926Z,80.43
2018-06-22T02:46:07.856Z,80.81
2018-06-22T02:47:07.853Z,80.62
2018-06-22T02:49:00.781Z,80.62
2018-06-22T02:50:00.776Z,80.95
2018-06-22T02:51:53.681Z,80.09
2018-06-22T02:52:53.702Z,80.53
2018-06-22T02:54:46.623Z,80.57
2018-06-22T02:55:46.624Z,80.85
2018-06-22T02:57:39.531Z,80.57
2018-06-22T02:58:39.550Z,80.47
2018-06-22T03:00:32.474Z,80.38
2018-06-22T03:01:32.472Z,80.38
2018-06-22T03:03:25.375Z,80.38
2018-06-22T03:04:25.440Z,80.47
2018-06-22T03:06:18.322Z,80.62
2018-06-22T03:07:18.321Z,80.47
2018-06-22T03:09:11.253Z,81.01
2018-06-22T03:10:11.252Z,80.85
2018-06-22T03:12:04.225Z,80.72
2018-06-22T03:13:04.174Z,81.01
2018-06-22T03:14:57.101Z,81.04
2018-06-22T03:15:57.096Z,80.53
2018-06-22T03:17:50.003Z,81.48
2018-06-22T03:18:50.021Z,81.20
2018-06-22T03:20:42.947Z,81.14
2018-06-22T03:21:42.948Z,81.58
2018-06-22T03:23:35.847Z,81.33
2018-06-22T03:24:35.869Z,81.33
2018-06-22T03:26:28.790Z,81.14
2018-06-22T03:27:28.788Z,81.43
2018-06-22T03:29:21.722Z,80.85
2018-06-22T03:30:21.721Z,81.24
2018-06-22T03:32:14.626Z,80.76
2018-06-22T03:33:14.644Z,81.24
2018-06-22T03:35:07.575Z,81.04
2018-06-22T03:36:07.576Z,81.01
2018-06-22T03:38:00.483Z,81.33
2018-06-22T03:39:00.500Z,81.14
2018-06-22T03:40:53.429Z,81.33
2018-06-22T03:41:53.427Z,81.62
2018-06-22T03:43:46.333Z,82.34
2018-06-22T03:44:46.352Z,82.09
2018-06-22T03:46:39.275Z,82.15
2018-06-22T03:47:39.274Z,82.82
2018-06-22T03:49:32.200Z,83.34
2018-06-22T03:50:32.198Z,82.91
2018-06-22T03:52:25.104Z,83.77
2018-06-22T03:53:25.121Z,83.81
2018-06-22T03:55:18.045Z,84.34
2018-06-22T03:56:18.046Z,84.53
2018-06-22T03:58:10.949Z,84.53
2018-06-22T03:59:10.971Z,84.92
2018-06-22T04:01:03.895Z,84.44
2018-06-22T04:02:03.892Z,84.53
2018-06-22T04:03:56.797Z,85.49
2018-06-22T04:04:56.816Z,85.58
2018-06-22T04:06:49.744Z,86.54
2018-06-22T04:07:49.741Z,85.97
2018-06-22T04:09:42.668Z,87.11
2018-06-22T04:10:42.668Z,87.11
2018-06-22T04:12:35.570Z,87.02
2018-06-22T04:13:35.589Z,88.16
2018-06-22T04:15:28.513Z,87.87
2018-06-22T04:16:28.518Z,87.11
2018-06-22T04:18:21.417Z,86.96
2018-06-22T04:19:21.435Z,86.92
2018-06-22T04:21:14.366Z,87.30
2018-06-22T04:22:14.361Z,87.87
2018-06-22T04:24:07.266Z,88.26
2018-06-22T04:25:07.284Z,88.26
2018-06-22T04:27:00.210Z,88.45
2018-06-22T04:28:00.206Z,89.45
2018-06-22T04:29:53.134Z,90.31
2018-06-22T04:30:53.129Z,90.79
2018-06-22T04:32:46.032Z,91.74
2018-06-22T04:33:46.050Z,92.32
2018-06-22T04:35:38.975Z,92.50
2018-06-22T04:36:38.974Z,92.60
2018-06-22T04:38:31.884Z,92.79
2018-06-22T04:39:31.899Z,92.69
2018-06-22T04:41:24.823Z,92.98
2018-06-22T04:42:24.816Z,93.08
2018-06-22T04:44:17.722Z,93.08
2018-06-22T04:45:17.740Z,93.74
2018-06-22T04:47:10.666Z,93.74
2018-06-22T04:48:10.667Z,94.32
2018-06-22T04:50:03.588Z,94.12
2018-06-22T04:51:03.585Z,93.74
2018-06-22T04:52:56.487Z,94.22
2018-06-22T04:53:56.505Z,93.84
2018-06-22T04:55:49.429Z,93.84
2018-06-22T04:56:49.427Z,93.93
2018-06-22T04:58:42.338Z,93.46
2018-06-22T04:59:42.412Z,93.55
2018-06-22T05:01:35.309Z,93.46
2018-06-22T05:02:35.303Z,92.32
2018-06-22T05:04:28.212Z,93.27
2018-06-22T05:05:28.231Z,93.74
2018-06-22T05:07:21.160Z,93.65
2018-06-22T05:08:21.154Z,93.36
2018-06-22T05:10:14.085Z,93.27
2018-06-22T05:11:14.081Z,93.08
2018-06-22T05:13:06.989Z,92.69
2018-06-22T05:14:07.008Z,92.32
2018-06-22T05:15:59.934Z,92.69
2018-06-22T05:16:59.935Z,92.22
2018-06-22T05:18:52.839Z,91.93
2018-06-22T05:19:52.865Z,91.64
2018-06-22T05:21:45.783Z,92.12
2018-06-22T05:22:45.862Z,92.32
2018-06-22T05:24:38.689Z,92.12
2018-06-22T05:25:38.707Z,91.74
2018-06-22T05:27:31.635Z,92.12
2018-06-22T05:28:31.632Z,91.17
2018-06-22T05:30:24.607Z,92.22
2018-06-22T05:31:24.571Z,92.69
2018-06-22T05:33:17.475Z,92.22
2018-06-22T05:34:17.497Z,92.22
2018-06-22T05:36:10.430Z,92.69
2018-06-22T05:37:10.417Z,92.50
2018-06-22T05:39:03.325Z,91.64
2018-06-22T05:40:03.342Z,91.36
2018-06-22T05:41:56.275Z,91.46
2018-06-22T05:42:56.268Z,91.55
2018-06-22T05:44:49.175Z,91.74
2018-06-22T05:45:49.193Z,92.50
2018-06-22T05:47:42.119Z,92.41
2018-06-22T05:48:42.119Z,92.12
2018-06-22T05:50:35.076Z,92.50
2018-06-22T05:51:35.043Z,91.83
2018-06-22T05:53:27.946Z,92.98
2018-06-22T05:54:27.964Z,92.03
2018-06-22T05:56:20.896Z,92.12
2018-06-22T05:57:20.888Z,92.32
2018-06-22T05:59:13.794Z,92.41
2018-06-22T06:00:13.813Z,92.79
2018-06-22T06:02:06.735Z,92.79
2018-06-22T06:03:06.736Z,92.50
2018-06-22T06:04:59.642Z,92.22
2018-06-22T06:05:59.659Z,92.50
2018-06-22T06:07:52.590Z,92.03
2018-06-22T06:08:52.582Z,92.12
2018-06-22T06:10:45.520Z,92.60
2018-06-22T06:11:45.521Z,92.41
2018-06-22T06:13:38.425Z,93.17
2018-06-22T06:14:38.441Z,92.41
2018-06-22T06:16:31.368Z,92.60
2018-06-22T06:17:31.364Z,92.50
2018-06-22T06:19:24.270Z,92.41
2018-06-22T06:20:24.290Z,92.60
2018-06-22T06:22:17.221Z,93.08
2018-06-22T06:23:17.222Z,92.88
2018-06-22T06:25:10.127Z,92.88
2018-06-22T06:26:10.145Z,92.88
2018-06-22T06:28:03.069Z,93.08
2018-06-22T06:29:03.066Z,93.65
2018-06-22T06:30:55.994Z,93.93
2018-06-22T06:31:55.993Z,93.84
2018-06-22T06:33:48.897Z,93.17
2018-06-22T06:34:48.918Z,93.98
2018-06-22T06:36:41.846Z,94.74
2018-06-22T06:37:41.845Z,94.17
2018-06-22T06:39:34.752Z,93.55
2018-06-22T06:40:34.773Z,93.26
2018-06-22T06:42:27.704Z,90.97
2018-06-22T06:43:27.702Z,90.50
2018-06-22T06:45:20.610Z,90.50
2018-06-22T06:46:20.631Z,91.26
2018-06-22T06:48:13.559Z,90.40
2018-06-22T06:49:13.558Z,90.88
2018-06-22T06:51:06.488Z,90.69
2018-06-22T06:52:06.492Z,90.31
2018-06-22T06:53:59.400Z,89.54
2018-06-22T06:54:59.423Z,89.25
2018-06-22T06:56:52.470Z,89.45
2018-06-22T06:57:52.355Z,90.11
2018-06-22T06:59:45.266Z,89.64
2018-06-22T07:00:45.285Z,89.06
2018-06-22T07:02:38.261Z,89.54
2018-06-22T07:03:38.218Z,89.25
2018-06-22T07:05:31.124Z,90.50
2018-06-22T07:06:31.143Z,89.73
2018-06-22T07:08:24.115Z,89.30
2018-06-22T07:09:24.074Z,89.78
2018-06-22T07:11:17.004Z,90.25
2018-06-22T07:12:17.004Z,90.06
2018-06-22T07:14:09.914Z,88.54
2018-06-22T07:15:09.938Z,89.53
2018-06-22T07:17:02.867Z,87.68
2018-06-22T07:18:02.869Z,88.92
2018-06-22T07:19:55.781Z,88.54
2018-06-22T07:20:55.798Z,87.43
2018-06-22T07:22:48.729Z,87.05
2018-06-22T07:23:48.730Z,86.76
2018-06-22T07:25:41.639Z,86.67
2018-06-22T07:26:41.661Z,87.15
2018-06-22T07:28:34.591Z,85.24
2018-06-22T07:29:34.592Z,85.71
2018-06-22T07:31:27.522Z,85.75
2018-06-22T07:32:27.521Z,85.18
2018-06-22T07:34:20.432Z,84.61
2018-06-22T07:35:20.455Z,84.32
2018-06-22T07:37:13.385Z,84.32
2018-06-22T07:38:13.385Z,83.84
2018-06-22T07:40:06.296Z,84.61
2018-06-22T07:41:06.318Z,84.23
2018-06-22T07:42:59.250Z,85.38
2018-06-22T07:43:59.331Z,84.32
2018-06-22T07:45:52.159Z,83.90
2018-06-22T07:46:52.180Z,85.42
2018-06-22T07:48:45.116Z,84.66
2018-06-22T07:49:45.176Z,85.62
2018-06-22T07:51:38.050Z,86.00
2018-06-22T07:52:38.048Z,86.15
2018-06-22T07:54:30.961Z,86.67
2018-06-22T07:55:30.978Z,86.76
2018-06-22T07:57:23.914Z,86.24
2018-06-22T07:58:23.912Z,88.25
2018-06-22T08:00:16.825Z,87.82
2018-06-22T08:01:16.843Z,86.86
2018-06-22T08:03:09.771Z,87.43
2018-06-22T08:04:09.773Z,87.53
2018-06-22T08:06:02.683Z,88.87
2018-06-22T08:07:02.703Z,87.91
2018-06-22T08:08:55.630Z,88.01
2018-06-22T08:09:55.632Z,89.10
2018-06-22T08:11:48.565Z,89.10
2018-06-22T08:12:48.563Z,88.15
2018-06-22T08:14:41.478Z,86.43
2018-06-22T08:15:41.499Z,86.96
2018-06-22T08:17:34.439Z,87.29
2018-06-22T08:18:34.434Z,87.57
2018-06-22T08:20:27.345Z,87.09
2018-06-22T08:21:27.365Z,87.53
2018-06-22T08:23:20.300Z,86.10
2018-06-22T08:24:20.299Z,84.95
2018-06-22T08:26:13.209Z,85.52
2018-06-22T08:27:13.228Z,85.24
2018-06-22T08:29:06.162Z,87.91
2018-06-22T08:30:06.166Z,87.91
2018-06-22T08:31:59.098Z,89.44
2018-06-22T08:32:59.095Z,89.63
2018-06-22T08:34:52.009Z,90.39
2018-06-22T08:35:52.026Z,91.45
2018-06-22T08:37:44.955Z,90.92
2018-06-22T08:38:44.953Z,91.69
2018-06-22T08:40:37.861Z,90.73
2018-06-22T08:41:37.930Z,91.11
2018-06-22T08:43:30.811Z,91.78
2018-06-22T08:44:30.810Z,91.40
2018-06-22T08:46:23.718Z,91.97
2018-06-22T08:47:23.738Z,92.45
2018-06-22T08:49:16.669Z,92.21
2018-06-22T08:50:16.671Z,92.59
2018-06-22T08:52:09.597Z,92.88
2018-06-22T08:53:09.596Z,92.40
2018-06-22T08:55:02.511Z,91.45
2018-06-22T08:56:02.528Z,91.45
2018-06-22T08:57:55.463Z,91.93
2018-06-22T08:58:55.460Z,92.21
2018-06-22T09:00:48.370Z,91.45
2018-06-22T09:01:48.391Z,91.35
2018-06-22T09:03:41.320Z,90.59
2018-06-22T09:04:41.319Z,91.54
2018-06-22T09:06:34.228Z,92.25
2018-06-22T09:07:34.249Z,91.02
2018-06-22T09:09:27.178Z,90.73
2018-06-22T09:10:27.180Z,91.30
2018-06-22T09:12:20.110Z,92.78
2018-06-22T09:13:20.110Z,92.30
2018-06-22T09:15:13.022Z,91.87
2018-06-22T09:16:13.043Z,91.87
2018-06-22T09:18:05.976Z,87.70
2018-06-22T09:19:05.976Z,85.21
2018-06-22T09:20:58.889Z,84.74
2018-06-22T09:21:58.911Z,84.12
2018-06-22T09:23:51.841Z,84.31
2018-06-22T09:24:51.843Z,84.98
2018-06-22T09:26:44.754Z,85.75
2018-06-22T09:27:44.776Z,85.94
2018-06-22T09:29:37.705Z,85.41
2018-06-22T09:30:37.704Z,85.84
2018-06-22T09:32:30.647Z,84.31
2018-06-22T09:33:30.649Z,84.74
2018-06-22T09:35:23.565Z,83.68
2018-06-22T09:36:23.588Z,84.92
2018-06-22T09:38:16.518Z,82.06
2018-06-22T09:39:16.525Z,83.30
2018-06-22T09:41:09.432Z,82.43
2018-06-22T09:42:09.452Z,83.39
2018-06-22T09:44:02.388Z,82.34
2018-06-22T09:45:02.440Z,81.29
2018-06-22T09:46:55.304Z,81.10
2018-06-22T09:47:55.326Z,81.81
2018-06-22T09:49:48.269Z,80.27
2018-06-22T09:50:48.271Z,81.13
2018-06-22T09:52:41.208Z,77.88
2018-06-22T09:53:41.206Z,78.84
2018-06-22T09:55:34.170Z,77.50
2018-06-22T09:56:34.192Z,77.11
2018-06-22T09:58:27.127Z,80.12
2018-06-22T09:59:27.137Z,77.25
2018-06-22T10:01:20.046Z,76.19
2018-06-22T10:02:20.078Z,77.34
2018-06-22T10:04:13.004Z,77.67
2018-06-22T10:05:13.015Z,76.04
2018-06-22T10:07:05.924Z,74.22
2018-06-22T10:08:05.958Z,73.83
2018-06-22T10:09:58.885Z,74.95
2018-06-22T10:10:58.888Z,74.37
2018-06-22T10:12:51.823Z,77.11
2018-06-22T10:13:51.834Z,77.11
2018-06-22T10:15:44.747Z,76.82
2018-06-22T10:16:44.767Z,78.07
2018-06-22T10:18:37.703Z,76.69
2018-06-22T10:19:37.757Z,76.40
2018-06-22T10:21:31.124Z,77.75
2018-06-22T10:22:31.144Z,77.08
2018-06-22T10:24:24.111Z,76.89
2018-06-22T10:25:24.114Z,77.26
2018-06-22T10:27:17.102Z,78.99
2018-06-22T10:28:17.068Z,79.13
2018-06-22T10:30:10.000Z,78.55
2018-06-22T10:31:10.005Z,77.78
2018-06-22T10:33:02.970Z,76.54
2018-06-22T10:34:03.003Z,75.96
2018-06-22T10:35:55.908Z,77.15
2018-06-22T10:36:55.930Z,76.19
2018-06-22T10:38:48.879Z,76.39
2018-06-22T10:39:48.887Z,77.53
2018-06-22T10:41:41.819Z,76.77
2018-06-22T10:42:41.844Z,76.86
2018-06-22T10:44:34.791Z,76.48
2018-06-22T10:45:34.796Z,76.48
2018-06-22T10:47:27.726Z,76.77
2018-06-22T10:48:27.750Z,77.11
2018-06-22T10:50:21.211Z,77.69
2018-06-22T10:51:21.215Z,77.69
2018-06-22T10:53:24.150Z,78.84
2018-06-22T10:54:24.160Z,77.02
2018-06-22T10:56:17.064Z,79.32
2018-06-22T10:57:17.088Z,79.03
2018-06-22T10:59:10.019Z,78.84
2018-06-22T11:00:10.021Z,77.11
2018-06-22T11:02:02.933Z,77.02
2018-06-22T11:03:02.951Z,78.36
2018-06-22T11:04:55.886Z,79.36
2018-06-22T11:05:55.886Z,79.64
2018-06-22T11:07:48.798Z,74.51
2018-06-22T11:08:48.821Z,75.18
2018-06-22T11:10:41.750Z,72.39
2018-06-22T11:11:41.752Z,72.68
2018-06-22T11:13:34.689Z,72.30
2018-06-22T11:14:34.687Z,72.49
2018-06-22T11:16:27.607Z,71.57
2018-06-22T11:17:27.634Z,72.14
2018-06-22T11:19:20.561Z,71.37
2018-06-22T11:20:20.561Z,69.74
2018-06-22T11:22:13.477Z,70.42
2018-06-22T11:23:13.508Z,69.87
2018-06-22T11:25:06.438Z,69.84
2018-06-22T11:26:06.436Z,69.26
2018-06-22T11:27:59.353Z,71.47
2018-06-22T11:28:59.374Z,74.79
2018-06-22T11:30:52.379Z,77.73
2018-06-22T11:31:55.835Z,78.45
2018-06-22T11:33:45.242Z,82.63
2018-06-22T11:34:45.243Z,83.87
2018-06-22T11:36:38.300Z,83.78
2018-06-22T11:37:38.321Z,84.12
2018-06-22T11:39:31.251Z,85.75
2018-06-22T11:40:31.253Z,85.75
2018-06-22T11:42:24.172Z,85.94
2018-06-22T11:43:24.186Z,86.13
2018-06-22T11:45:17.116Z,86.70
2018-06-22T11:46:17.117Z,86.84
2018-06-22T11:48:10.034Z,87.32
2018-06-22T11:49:10.050Z,85.69
2018-06-22T11:51:03.066Z,86.50
2018-06-22T11:52:02.982Z,88.03
2018-06-22T11:53:55.913Z,85.39
2018-06-22T11:54:55.913Z,82.62
2018-06-22T11:56:48.827Z,81.27
2018-06-22T11:57:48.850Z,78.20
2018-06-22T11:59:41.820Z,77.44
2018-06-22T12:00:41.795Z,75.52
2018-06-22T12:02:34.696Z,78.20
2018-06-22T12:03:34.720Z,78.49
2018-06-22T12:05:27.657Z,76.57
2018-06-22T12:06:27.655Z,78.30
2018-06-22T12:08:20.572Z,77.63
2018-06-22T12:09:20.595Z,77.40
2018-06-22T12:11:13.542Z,76.35
2018-06-22T12:12:13.543Z,76.77
2018-06-22T12:14:06.485Z,77.06
2018-06-22T12:15:06.473Z,76.64
2018-06-22T12:16:59.387Z,75.58
2018-06-22T12:17:59.409Z,74.43
2018-06-22T12:19:52.847Z,76.54
2018-06-22T12:20:52.851Z,75.01
2018-06-22T12:22:45.798Z,76.54
2018-06-22T12:23:45.811Z,74.43
2018-06-22T12:25:38.718Z,76.06
2018-06-22T12:26:38.718Z,77.06
2018-06-22T12:28:31.633Z,74.91
2018-06-22T12:29:31.652Z,75.81
2018-06-22T12:31:24.583Z,76.48
2018-06-22T12:32:24.589Z,75.81
2018-06-22T12:34:17.583Z,74.18
2018-06-22T12:35:17.519Z,74.18
2018-06-22T12:37:10.461Z,76.71
2018-06-22T12:38:10.453Z,73.45
2018-06-22T12:40:03.454Z,71.92
2018-06-22T12:41:03.387Z,71.82
2018-06-22T12:42:56.791Z,70.96
2018-06-22T12:43:56.815Z,70.83
2018-06-22T12:45:49.745Z,70.38
2018-06-22T12:46:49.748Z,70.76
2018-06-22T12:48:42.658Z,70.00
2018-06-22T12:49:42.678Z,67.41
2018-06-22T12:51:35.615Z,69.74
2018-06-22T12:52:35.612Z,70.23
2018-06-22T12:54:28.546Z,68.40
2018-06-22T12:55:28.549Z,67.54
2018-06-22T12:57:21.458Z,66.58
2018-06-22T12:58:21.481Z,68.30
2018-06-22T13:00:14.414Z,67.35
2018-06-22T13:01:14.414Z,66.86
2018-06-22T13:03:07.326Z,65.52
2018-06-22T13:04:07.422Z,66.10
2018-06-22T13:06:00.282Z,67.54
2018-06-22T13:07:00.284Z,69.20
2018-06-22T13:08:53.197Z,65.75
2018-06-22T13:09:53.218Z,63.92
2018-06-22T13:11:46.153Z,64.02
2018-06-22T13:12:46.155Z,63.92
2018-06-22T13:14:39.087Z,63.73
2018-06-22T13:15:39.088Z,64.22
2018-06-22T13:17:32.010Z,66.42
2018-06-22T13:18:32.025Z,65.84
2018-06-22T13:20:24.962Z,63.83
2018-06-22T13:21:24.962Z,63.96
2018-06-22T13:23:17.876Z,63.96
2018-06-22T13:24:17.899Z,65.78
2018-06-22T13:26:10.833Z,65.20
2018-06-22T13:27:10.835Z,63.60
2018-06-22T13:29:03.748Z,62.71
2018-06-22T13:30:03.771Z,63.09
2018-06-22T13:31:56.706Z,63.28
2018-06-22T13:32:56.710Z,63.38
2018-06-22T13:34:49.848Z,63.96
2018-06-22T13:35:49.854Z,64.63
2018-06-22T13:37:42.766Z,65.08
2018-06-22T13:38:42.791Z,65.94
2018-06-22T13:40:35.725Z,65.75
2018-06-22T13:41:35.727Z,66.58
2018-06-22T13:43:28.639Z,70.96
2018-06-22T13:44:28.665Z,72.97
2018-06-22T13:46:21.597Z,74.08
2018-06-22T13:47:21.598Z,75.33
2018-06-22T13:49:14.511Z,77.02
2018-06-22T13:50:14.649Z,77.02
2018-06-22T13:52:07.468Z,77.97
2018-06-22T13:53:07.468Z,77.97
2018-06-22T13:55:00.404Z,78.61
2018-06-22T13:56:00.409Z,78.74
2018-06-22T13:57:53.317Z,81.13
2018-06-22T13:58:53.340Z,81.23
2018-06-22T14:00:46.270Z,79.07
2018-06-22T14:01:46.273Z,77.53
2018-06-22T14:03:39.186Z,77.58
2018-06-22T14:04:39.209Z,78.44
2018-06-22T14:06:32.143Z,74.41
2018-06-22T14:07:32.153Z,76.04
2018-06-22T14:09:25.158Z,75.31
2018-06-22T14:10:25.079Z,74.44
2018-06-22T14:12:18.014Z,73.39
2018-06-22T14:13:18.017Z,71.41
2018-06-22T14:15:10.966Z,72.85
2018-06-22T14:16:10.959Z,71.61
2018-06-22T14:18:03.870Z,68.57
2018-06-22T14:19:03.893Z,68.47
2018-06-22T14:20:56.830Z,67.22
2018-06-22T14:21:56.829Z,66.74
2018-06-22T14:23:49.765Z,66.36
2018-06-22T14:24:49.765Z,67.41
2018-06-22T14:26:42.702Z,67.99
2018-06-22T14:27:42.788Z,67.22
2018-06-22T14:29:35.625Z,63.28
2018-06-22T14:30:35.644Z,61.84
2018-06-22T14:32:28.586Z,60.38
2018-06-22T14:33:28.587Z,60.38
2018-06-22T14:35:21.521Z,60.08
2018-06-22T14:36:21.526Z,60.98
2018-06-22T14:38:14.443Z,59.92
2018-06-22T14:39:14.462Z,60.21
2018-06-22T14:41:07.396Z,60.31
2018-06-22T14:42:07.399Z,58.64
2018-06-22T14:44:00.316Z,60.18
2018-06-22T14:45:00.344Z,60.75
2018-06-22T14:46:53.272Z,61.05
2018-06-22T14:47:53.274Z,61.05
2018-06-22T14:49:46.189Z,61.14
2018-06-22T14:50:46.212Z,61.24
2018-06-22T14:52:39.156Z,60.05
2018-06-22T14:53:39.152Z,60.05
2018-06-22T14:55:32.272Z,61.88
2018-06-22T14:56:32.264Z,62.07
2018-06-22T14:58:25.178Z,61.69
2018-06-22T14:59:25.201Z,61.85
2018-06-22T15:01:18.137Z,63.57
2018-06-22T15:02:18.138Z,63.57
2018-06-22T15:04:11.049Z,63.86
2018-06-22T15:05:11.076Z,63.57
2018-06-22T15:07:04.064Z,64.18
2018-06-22T15:08:04.020Z,64.66
2018-06-22T15:09:56.936Z,64.28
2018-06-22T15:10:56.956Z,65.01
2018-06-22T15:12:49.905Z,65.81
2018-06-22T15:13:49.895Z,65.39
2018-06-22T15:15:42.829Z,65.72
2018-06-22T15:16:42.831Z,65.81
2018-06-22T15:18:35.746Z,65.91
2018-06-22T15:19:35.770Z,66.29
2018-06-22T15:21:28.706Z,66.86
2018-06-22T15:22:28.708Z,66.49
2018-06-22T15:24:21.680Z,65.62
2018-06-22T15:25:21.653Z,65.43
2018-06-22T15:27:14.587Z,64.76
2018-06-22T15:28:14.589Z,64.95
2018-06-22T15:30:07.501Z,65.43
2018-06-22T15:31:07.526Z,66.61
2018-06-22T15:33:00.460Z,64.59
2018-06-22T15:34:00.462Z,64.59
2018-06-22T15:35:53.373Z,64.25
2018-06-22T15:36:53.397Z,63.64
2018-06-22T15:38:46.333Z,63.54
2018-06-22T15:39:46.399Z,63.92
2018-06-22T15:41:39.270Z,64.22
2018-06-22T15:42:39.272Z,63.92
2018-06-22T15:44:32.187Z,63.35
2018-06-22T15:45:32.210Z,63.16
2018-06-22T15:47:25.148Z,63.35
2018-06-22T15:48:25.149Z,64.02
2018-06-22T15:50:18.067Z,61.43
2018-06-22T15:51:18.086Z,60.08
2018-06-22T15:53:11.021Z,60.08
2018-06-22T15:54:11.045Z,59.41
2018-06-22T15:56:03.938Z,58.45
2018-06-22T15:57:03.962Z,59.12
2018-06-22T15:58:56.894Z,56.82
2018-06-22T15:59:56.950Z,57.01
2018-06-22T16:01:49.833Z,57.50
2018-06-22T16:02:49.842Z,56.44
2018-06-22T16:04:42.747Z,56.79
2018-06-22T16:05:42.769Z,56.92
2018-06-22T16:07:35.704Z,57.68
2018-06-22T16:08:35.705Z,58.36
2018-06-22T16:10:28.617Z,57.88
2018-06-22T16:11:28.666Z,58.45
2018-06-22T16:13:21.576Z,56.82
2018-06-22T16:14:21.575Z,57.01
2018-06-22T16:16:14.491Z,58.36
2018-06-22T16:17:14.513Z,58.17
2018-06-22T16:19:07.466Z,57.01
2018-06-22T16:20:07.458Z,56.44
2018-06-22T16:22:00.391Z,57.30
2018-06-22T16:23:00.390Z,57.62
2018-06-22T16:24:53.303Z,56.76
2018-06-22T16:25:53.327Z,56.53
2018-06-22T16:27:46.257Z,57.78
2018-06-22T16:28:46.263Z,57.88
2018-06-22T16:30:39.237Z,57.81
2018-06-22T16:31:39.200Z,56.37
2018-06-22T16:33:32.134Z,55.69
2018-06-22T16:34:32.136Z,56.18
2018-06-22T16:36:25.051Z,55.89
2018-06-22T16:37:25.074Z,56.37
2018-06-22T16:39:18.009Z,55.79
2018-06-22T16:40:18.013Z,56.27
2018-06-22T16:42:10.946Z,55.91
2018-06-22T16:43:10.947Z,54.93
2018-06-22T16:45:03.860Z,55.89
2018-06-22T16:46:03.915Z,54.96
2018-06-22T16:47:56.820Z,56.08
2018-06-22T16:48:56.825Z,55.73
2018-06-22T16:50:49.739Z,56.08
2018-06-22T16:51:49.908Z,56.76
2018-06-22T16:53:42.701Z,56.56
2018-06-22T16:54:42.700Z,56.37
2018-06-22T16:56:35.615Z,57.59
2018-06-22T16:57:35.691Z,58.36
2018-06-22T16:59:28.572Z,58.84
2018-06-22T17:00:28.572Z,59.80
2018-06-22T17:02:21.508Z,59.12
2018-06-22T17:03:21.509Z,58.87
2018-06-22T17:05:14.421Z,59.83
2018-06-22T17:06:14.443Z,58.67
2018-06-22T17:08:07.379Z,59.80
2018-06-22T17:09:07.381Z,60.02
2018-06-22T17:11:00.296Z,59.51
2018-06-22T17:12:00.320Z,59.61
2018-06-22T17:13:53.251Z,59.12
2018-06-22T17:14:53.253Z,57.59
2018-06-22T17:16:46.204Z,57.40
2018-06-22T17:17:46.228Z,57.78
2018-06-22T17:19:39.186Z,58.36
2018-06-22T17:20:39.212Z,58.36
2018-06-22T17:22:32.173Z,58.14
2018-06-22T17:23:32.660Z,58.04
2018-06-22T17:25:25.131Z,59.09
2018-06-22T17:26:25.114Z,58.81
2018-06-22T17:28:19.117Z,59.77
2018-06-22T17:29:18.030Z,59.86
2018-06-22T17:31:10.998Z,59.38
2018-06-22T17:32:11.062Z,59.77
2018-06-22T17:34:04.104Z,59.77
2018-06-22T17:35:04.070Z,59.32
2018-06-22T17:36:56.987Z,59.29
2018-06-22T17:37:57.017Z,59.96
2018-06-22T17:39:51.585Z,60.05
2018-06-22T17:40:51.587Z,60.08
2018-06-22T17:42:44.594Z,59.86
2018-06-22T17:43:44.569Z,60.08
2018-06-22T17:45:37.466Z,60.18
2018-06-22T17:46:37.491Z,59.89
2018-06-22T17:48:30.425Z,59.41
2018-06-22T17:49:30.451Z,59.61
2018-06-22T17:51:23.379Z,60.38
2018-06-22T17:52:23.383Z,60.08
2018-06-22T17:54:16.340Z,60.08
2018-06-22T17:55:16.356Z,60.11
2018-06-22T17:57:09.255Z,58.22
2018-06-22T17:58:09.283Z,57.55
2018-06-22T18:00:02.486Z,57.07
2018-06-22T18:01:02.472Z,57.71
2018-06-22T18:02:56.291Z,56.37
2018-06-22T18:03:55.786Z,56.76
2018-06-22T18:05:48.687Z,56.30
2018-06-22T18:06:48.710Z,56.27
2018-06-22T18:08:41.649Z,57.04
2018-06-22T18:09:41.731Z,56.73
2018-06-22T18:11:34.564Z,57.88
2018-06-22T18:12:34.730Z,58.17
2018-06-22T18:14:27.525Z,57.97
2018-06-22T18:15:27.526Z,57.68
2018-06-22T18:17:20.438Z,57.59
2018-06-22T18:18:20.462Z,56.82
2018-06-22T18:20:13.482Z,56.92
2018-06-22T18:21:13.398Z,57.56
2018-06-22T18:23:06.355Z,58.17
2018-06-22T18:24:06.339Z,57.56
2018-06-22T18:25:59.252Z,58.04
2018-06-22T18:26:59.274Z,58.71
2018-06-22T18:28:52.208Z,59.19
2018-06-22T18:29:52.212Z,58.91
2018-06-22T18:31:45.125Z,59.48
2018-06-22T18:32:45.147Z,60.05
2018-06-22T18:34:38.078Z,59.26